sensor_id;sensor_type;location;lat;lon;timestamp;temperature;humidity
4840;DHT22;2434;48.486;7.964;2023-08-01T00:01:20;20.30;59.20
4840;DHT22;2434;48.486;7.964;2023-08-01T00:03:48;20.40;58.50
4840;DHT22;2434;48.486;7.964;2023-08-01T00:06:16;20.40;58.60
4840;DHT22;2434;48.486;7.964;2023-08-01T00:08:46;20.40;58.90
4840;DHT22;2434;48.486;7.964;2023-08-01T00:11:15;20.40;59.50
4840;DHT22;2434;48.486;7.964;2023-08-01T00:13:44;20.40;59.30
4840;DHT22;2434;48.486;7.964;2023-08-01T00:16:13;20.50;58.00
4840;DHT22;2434;48.486;7.964;2023-08-01T00:18:41;20.50;58.50
4840;DHT22;2434;48.486;7.964;2023-08-01T00:21:10;20.50;58.80
4840;DHT22;2434;48.486;7.964;2023-08-01T00:23:38;20.50;58.10
4840;DHT22;2434;48.486;7.964;2023-08-01T00:26:07;20.50;58.40
4840;DHT22;2434;48.486;7.964;2023-08-01T00:28:35;20.50;59.00
4840;DHT22;2434;48.486;7.964;2023-08-01T00:31:06;20.50;57.70
4840;DHT22;2434;48.486;7.964;2023-08-01T00:33:36;20.60;57.40
4840;DHT22;2434;48.486;7.964;2023-08-01T00:36:04;20.60;57.20
4840;DHT22;2434;48.486;7.964;2023-08-01T00:38:36;20.60;57.60
4840;DHT22;2434;48.486;7.964;2023-08-01T00:41:04;20.60;57.90
4840;DHT22;2434;48.486;7.964;2023-08-01T00:43:33;20.60;58.20
4840;DHT22;2434;48.486;7.964;2023-08-01T00:46:03;20.60;58.60
4840;DHT22;2434;48.486;7.964;2023-08-01T00:48:34;20.60;59.20
4840;DHT22;2434;48.486;7.964;2023-08-01T00:51:04;20.60;59.10
4840;DHT22;2434;48.486;7.964;2023-08-01T00:53:33;20.60;59.00
4840;DHT22;2434;48.486;7.964;2023-08-01T00:56:03;20.60;58.30
4840;DHT22;2434;48.486;7.964;2023-08-01T00:58:31;20.60;57.70
4840;DHT22;2434;48.486;7.964;2023-08-01T01:01:00;20.60;57.00
4840;DHT22;2434;48.486;7.964;2023-08-01T01:03:31;20.60;55.10
4840;DHT22;2434;48.486;7.964;2023-08-01T01:06:06;20.70;55.20
4840;DHT22;2434;48.486;7.964;2023-08-01T01:08:36;20.70;54.20
4840;DHT22;2434;48.486;7.964;2023-08-01T01:11:04;20.80;53.60
4840;DHT22;2434;48.486;7.964;2023-08-01T01:13:33;20.80;53.20
4840;DHT22;2434;48.486;7.964;2023-08-01T01:16:01;20.90;52.60
4840;DHT22;2434;48.486;7.964;2023-08-01T01:18:29;20.90;52.50
4840;DHT22;2434;48.486;7.964;2023-08-01T01:20:59;21.00;52.60
4840;DHT22;2434;48.486;7.964;2023-08-01T01:23:28;21.00;51.60
4840;DHT22;2434;48.486;7.964;2023-08-01T01:25:57;21.00;52.10
4840;DHT22;2434;48.486;7.964;2023-08-01T01:28:26;21.00;52.30
4840;DHT22;2434;48.486;7.964;2023-08-01T01:30:55;21.00;52.40
4840;DHT22;2434;48.486;7.964;2023-08-01T01:33:26;21.00;52.20
4840;DHT22;2434;48.486;7.964;2023-08-01T01:35:54;21.00;52.60
4840;DHT22;2434;48.486;7.964;2023-08-01T01:38:24;21.00;53.10
4840;DHT22;2434;48.486;7.964;2023-08-01T01:40:52;21.00;53.10
4840;DHT22;2434;48.486;7.964;2023-08-01T01:43:20;21.00;53.40
4840;DHT22;2434;48.486;7.964;2023-08-01T01:45:49;21.00;53.60
4840;DHT22;2434;48.486;7.964;2023-08-01T01:48:17;21.00;53.40
4840;DHT22;2434;48.486;7.964;2023-08-01T01:50:46;21.00;53.80
4840;DHT22;2434;48.486;7.964;2023-08-01T01:53:14;21.00;54.20
4840;DHT22;2434;48.486;7.964;2023-08-01T01:55:43;21.00;54.30
4840;DHT22;2434;48.486;7.964;2023-08-01T01:58:13;21.00;54.20
4840;DHT22;2434;48.486;7.964;2023-08-01T02:00:41;21.00;54.30
4840;DHT22;2434;48.486;7.964;2023-08-01T02:03:09;21.10;54.00
4840;DHT22;2434;48.486;7.964;2023-08-01T02:05:39;21.00;54.20
4840;DHT22;2434;48.486;7.964;2023-08-01T02:08:08;21.00;54.60
4840;DHT22;2434;48.486;7.964;2023-08-01T02:10:36;21.00;54.70
4840;DHT22;2434;48.486;7.964;2023-08-01T02:13:06;21.10;54.30
4840;DHT22;2434;48.486;7.964;2023-08-01T02:15:35;21.00;54.20
4840;DHT22;2434;48.486;7.964;2023-08-01T02:18:03;21.00;53.90
4840;DHT22;2434;48.486;7.964;2023-08-01T02:20:31;21.00;54.40
4840;DHT22;2434;48.486;7.964;2023-08-01T02:22:59;21.00;54.90
4840;DHT22;2434;48.486;7.964;2023-08-01T02:25:28;21.00;56.90
4840;DHT22;2434;48.486;7.964;2023-08-01T02:27:56;21.10;60.30
4840;DHT22;2434;48.486;7.964;2023-08-01T02:30:26;21.00;61.80
4840;DHT22;2434;48.486;7.964;2023-08-01T02:32:56;21.00;62.60
4840;DHT22;2434;48.486;7.964;2023-08-01T02:35:24;20.90;63.20
4840;DHT22;2434;48.486;7.964;2023-08-01T02:37:53;20.90;64.30
4840;DHT22;2434;48.486;7.964;2023-08-01T02:40:21;20.70;65.50
4840;DHT22;2434;48.486;7.964;2023-08-01T02:42:50;20.60;66.50
4840;DHT22;2434;48.486;7.964;2023-08-01T02:45:18;20.50;67.90
4840;DHT22;2434;48.486;7.964;2023-08-01T02:47:48;20.40;67.80
4840;DHT22;2434;48.486;7.964;2023-08-01T02:50:16;20.30;69.30
4840;DHT22;2434;48.486;7.964;2023-08-01T02:52:44;20.30;68.90
4840;DHT22;2434;48.486;7.964;2023-08-01T02:55:13;20.30;69.60
4840;DHT22;2434;48.486;7.964;2023-08-01T02:57:41;20.20;70.80
4840;DHT22;2434;48.486;7.964;2023-08-01T03:00:10;20.20;70.80
4840;DHT22;2434;48.486;7.964;2023-08-01T03:02:39;20.10;70.90
4840;DHT22;2434;48.486;7.964;2023-08-01T03:05:09;20.10;71.50
4840;DHT22;2434;48.486;7.964;2023-08-01T03:07:38;20.10;71.60
4840;DHT22;2434;48.486;7.964;2023-08-01T03:10:07;20.00;71.60
4840;DHT22;2434;48.486;7.964;2023-08-01T03:12:45;20.00;72.50
4840;DHT22;2434;48.486;7.964;2023-08-01T03:15:14;20.00;72.50
4840;DHT22;2434;48.486;7.964;2023-08-01T03:17:42;20.00;72.90
4840;DHT22;2434;48.486;7.964;2023-08-01T03:20:12;20.00;72.90
4840;DHT22;2434;48.486;7.964;2023-08-01T03:22:40;19.90;73.00
4840;DHT22;2434;48.486;7.964;2023-08-01T03:25:09;20.00;73.50
4840;DHT22;2434;48.486;7.964;2023-08-01T03:27:37;19.90;73.00
4840;DHT22;2434;48.486;7.964;2023-08-01T03:30:06;19.90;73.40
4840;DHT22;2434;48.486;7.964;2023-08-01T03:32:36;19.90;73.70
4840;DHT22;2434;48.486;7.964;2023-08-01T03:35:05;19.90;73.10
4840;DHT22;2434;48.486;7.964;2023-08-01T03:37:35;19.90;72.00
4840;DHT22;2434;48.486;7.964;2023-08-01T03:40:05;19.90;72.90
4840;DHT22;2434;48.486;7.964;2023-08-01T03:42:36;19.90;73.30
4840;DHT22;2434;48.486;7.964;2023-08-01T03:45:06;19.80;73.50
4840;DHT22;2434;48.486;7.964;2023-08-01T03:47:34;19.80;74.40
4840;DHT22;2434;48.486;7.964;2023-08-01T03:50:03;19.80;74.10
4840;DHT22;2434;48.486;7.964;2023-08-01T03:52:31;19.70;74.80
4840;DHT22;2434;48.486;7.964;2023-08-01T03:55:01;19.80;76.30
4840;DHT22;2434;48.486;7.964;2023-08-01T03:57:29;19.80;75.10
4840;DHT22;2434;48.486;7.964;2023-08-01T03:59:57;19.70;75.90
4840;DHT22;2434;48.486;7.964;2023-08-01T04:02:25;19.60;76.60
4840;DHT22;2434;48.486;7.964;2023-08-01T04:04:54;19.50;77.10
4840;DHT22;2434;48.486;7.964;2023-08-01T04:07:22;19.40;76.40
4840;DHT22;2434;48.486;7.964;2023-08-01T04:09:50;19.30;76.10
4840;DHT22;2434;48.486;7.964;2023-08-01T04:12:22;19.20;74.80
4840;DHT22;2434;48.486;7.964;2023-08-01T04:14:50;19.10;74.10
4840;DHT22;2434;48.486;7.964;2023-08-01T04:17:19;19.20;73.90
4840;DHT22;2434;48.486;7.964;2023-08-01T04:19:47;19.10;72.20
4840;DHT22;2434;48.486;7.964;2023-08-01T04:22:15;19.10;73.30
4840;DHT22;2434;48.486;7.964;2023-08-01T04:24:43;19.20;72.70
4840;DHT22;2434;48.486;7.964;2023-08-01T04:27:12;19.20;72.50
4840;DHT22;2434;48.486;7.964;2023-08-01T04:29:41;19.20;72.30
4840;DHT22;2434;48.486;7.964;2023-08-01T04:32:09;19.20;72.00
4840;DHT22;2434;48.486;7.964;2023-08-01T04:34:41;19.20;71.60
4840;DHT22;2434;48.486;7.964;2023-08-01T04:37:09;19.20;71.90
4840;DHT22;2434;48.486;7.964;2023-08-01T04:39:38;19.20;71.70
4840;DHT22;2434;48.486;7.964;2023-08-01T04:42:06;19.20;71.40
4840;DHT22;2434;48.486;7.964;2023-08-01T04:44:34;19.20;71.60
4840;DHT22;2434;48.486;7.964;2023-08-01T04:47:05;19.20;72.30
4840;DHT22;2434;48.486;7.964;2023-08-01T04:49:33;19.30;72.40
4840;DHT22;2434;48.486;7.964;2023-08-01T04:52:02;19.30;70.80
4840;DHT22;2434;48.486;7.964;2023-08-01T04:54:34;19.30;71.30
4840;DHT22;2434;48.486;7.964;2023-08-01T04:57:02;19.40;70.80
4840;DHT22;2434;48.486;7.964;2023-08-01T04:59:30;19.40;70.00
4840;DHT22;2434;48.486;7.964;2023-08-01T05:01:59;19.40;69.90
4840;DHT22;2434;48.486;7.964;2023-08-01T05:04:29;19.40;70.60
4840;DHT22;2434;48.486;7.964;2023-08-01T05:06:57;19.40;71.50
4840;DHT22;2434;48.486;7.964;2023-08-01T05:09:25;19.50;70.70
4840;DHT22;2434;48.486;7.964;2023-08-01T05:11:53;19.50;70.60
4840;DHT22;2434;48.486;7.964;2023-08-01T05:14:21;19.40;70.90
4840;DHT22;2434;48.486;7.964;2023-08-01T05:16:50;19.40;70.90
4840;DHT22;2434;48.486;7.964;2023-08-01T05:19:18;19.40;70.50
4840;DHT22;2434;48.486;7.964;2023-08-01T05:21:48;19.50;70.40
4840;DHT22;2434;48.486;7.964;2023-08-01T05:24:16;19.50;70.50
4840;DHT22;2434;48.486;7.964;2023-08-01T05:26:44;19.50;70.50
4840;DHT22;2434;48.486;7.964;2023-08-01T05:29:13;19.40;70.50
4840;DHT22;2434;48.486;7.964;2023-08-01T05:31:41;19.40;71.00
4840;DHT22;2434;48.486;7.964;2023-08-01T05:34:09;19.40;71.00
4840;DHT22;2434;48.486;7.964;2023-08-01T05:36:37;19.40;71.40
4840;DHT22;2434;48.486;7.964;2023-08-01T05:39:07;19.40;71.60
4840;DHT22;2434;48.486;7.964;2023-08-01T05:41:36;19.40;71.20
4840;DHT22;2434;48.486;7.964;2023-08-01T05:44:04;19.40;72.00
4840;DHT22;2434;48.486;7.964;2023-08-01T05:46:33;19.40;71.90
4840;DHT22;2434;48.486;7.964;2023-08-01T05:49:01;19.30;73.20
4840;DHT22;2434;48.486;7.964;2023-08-01T05:51:29;19.30;72.30
4840;DHT22;2434;48.486;7.964;2023-08-01T05:53:58;19.30;71.40
4840;DHT22;2434;48.486;7.964;2023-08-01T05:56:27;19.30;70.90
4840;DHT22;2434;48.486;7.964;2023-08-01T05:58:56;19.30;71.10
4840;DHT22;2434;48.486;7.964;2023-08-01T06:01:25;19.30;70.70
4840;DHT22;2434;48.486;7.964;2023-08-01T06:03:53;19.30;70.60
4840;DHT22;2434;48.486;7.964;2023-08-01T06:06:22;19.30;71.10
4840;DHT22;2434;48.486;7.964;2023-08-01T06:08:50;19.30;71.10
4840;DHT22;2434;48.486;7.964;2023-08-01T06:11:19;19.30;71.10
4840;DHT22;2434;48.486;7.964;2023-08-01T06:13:48;19.30;71.40
4840;DHT22;2434;48.486;7.964;2023-08-01T06:16:17;19.30;69.80
4840;DHT22;2434;48.486;7.964;2023-08-01T06:18:45;19.20;68.80
4840;DHT22;2434;48.486;7.964;2023-08-01T06:21:14;19.20;67.90
4840;DHT22;2434;48.486;7.964;2023-08-01T06:23:42;19.20;67.70
4840;DHT22;2434;48.486;7.964;2023-08-01T06:26:10;19.20;68.00
4840;DHT22;2434;48.486;7.964;2023-08-01T06:28:38;19.20;68.00
4840;DHT22;2434;48.486;7.964;2023-08-01T06:31:08;19.20;68.30
4840;DHT22;2434;48.486;7.964;2023-08-01T06:33:36;19.30;68.90
4840;DHT22;2434;48.486;7.964;2023-08-01T06:36:05;19.20;68.60
4840;DHT22;2434;48.486;7.964;2023-08-01T06:38:33;19.30;68.30
4840;DHT22;2434;48.486;7.964;2023-08-01T06:41:02;19.30;68.80
4840;DHT22;2434;48.486;7.964;2023-08-01T06:43:30;19.30;69.20
4840;DHT22;2434;48.486;7.964;2023-08-01T06:45:58;19.30;71.10
4840;DHT22;2434;48.486;7.964;2023-08-01T06:48:28;19.20;71.60
4840;DHT22;2434;48.486;7.964;2023-08-01T06:50:58;19.20;73.70
4840;DHT22;2434;48.486;7.964;2023-08-01T06:53:26;19.10;74.10
4840;DHT22;2434;48.486;7.964;2023-08-01T06:55:54;19.10;73.70
4840;DHT22;2434;48.486;7.964;2023-08-01T06:58:23;19.10;74.80
4840;DHT22;2434;48.486;7.964;2023-08-01T07:00:51;19.00;75.40
4840;DHT22;2434;48.486;7.964;2023-08-01T07:03:19;19.00;75.90
4840;DHT22;2434;48.486;7.964;2023-08-01T07:05:49;18.90;76.70
4840;DHT22;2434;48.486;7.964;2023-08-01T07:08:18;18.90;77.50
4840;DHT22;2434;48.486;7.964;2023-08-01T07:10:48;18.80;78.10
4840;DHT22;2434;48.486;7.964;2023-08-01T07:13:16;18.80;78.30
4840;DHT22;2434;48.486;7.964;2023-08-01T07:15:46;18.70;79.10
4840;DHT22;2434;48.486;7.964;2023-08-01T07:18:15;18.70;79.70
4840;DHT22;2434;48.486;7.964;2023-08-01T07:20:43;18.60;80.30
4840;DHT22;2434;48.486;7.964;2023-08-01T07:23:13;18.60;80.80
4840;DHT22;2434;48.486;7.964;2023-08-01T07:25:41;18.50;82.40
4840;DHT22;2434;48.486;7.964;2023-08-01T07:28:09;18.50;82.30
4840;DHT22;2434;48.486;7.964;2023-08-01T07:30:38;18.50;83.30
4840;DHT22;2434;48.486;7.964;2023-08-01T07:33:06;18.40;83.70
4840;DHT22;2434;48.486;7.964;2023-08-01T07:35:34;18.40;83.90
4840;DHT22;2434;48.486;7.964;2023-08-01T07:38:02;18.40;84.10
4840;DHT22;2434;48.486;7.964;2023-08-01T07:40:32;18.30;85.00
4840;DHT22;2434;48.486;7.964;2023-08-01T07:43:00;18.30;84.90
4840;DHT22;2434;48.486;7.964;2023-08-01T07:45:28;18.30;85.30
4840;DHT22;2434;48.486;7.964;2023-08-01T07:47:57;18.30;85.90
4840;DHT22;2434;48.486;7.964;2023-08-01T07:50:26;18.30;86.30
4840;DHT22;2434;48.486;7.964;2023-08-01T07:52:54;18.30;86.40
4840;DHT22;2434;48.486;7.964;2023-08-01T07:55:22;18.30;86.90
4840;DHT22;2434;48.486;7.964;2023-08-01T07:57:52;18.30;87.30
4840;DHT22;2434;48.486;7.964;2023-08-01T08:00:20;18.30;87.90
4840;DHT22;2434;48.486;7.964;2023-08-01T08:02:48;18.30;87.90
4840;DHT22;2434;48.486;7.964;2023-08-01T08:05:17;18.20;88.40
4840;DHT22;2434;48.486;7.964;2023-08-01T08:07:45;18.20;88.70
4840;DHT22;2434;48.486;7.964;2023-08-01T08:10:13;18.20;89.20
4840;DHT22;2434;48.486;7.964;2023-08-01T08:12:42;18.20;89.20
4840;DHT22;2434;48.486;7.964;2023-08-01T08:15:12;18.30;89.90
4840;DHT22;2434;48.486;7.964;2023-08-01T08:17:43;18.30;90.10
4840;DHT22;2434;48.486;7.964;2023-08-01T08:20:11;18.20;90.10
4840;DHT22;2434;48.486;7.964;2023-08-01T08:22:39;18.20;89.80
4840;DHT22;2434;48.486;7.964;2023-08-01T08:25:08;18.20;91.20
4840;DHT22;2434;48.486;7.964;2023-08-01T08:27:37;18.30;90.40
4840;DHT22;2434;48.486;7.964;2023-08-01T08:30:07;18.20;91.20
4840;DHT22;2434;48.486;7.964;2023-08-01T08:32:37;18.30;90.90
4840;DHT22;2434;48.486;7.964;2023-08-01T08:35:05;18.30;91.10
4840;DHT22;2434;48.486;7.964;2023-08-01T08:37:34;18.30;90.20
4840;DHT22;2434;48.486;7.964;2023-08-01T08:40:05;18.30;90.30
4840;DHT22;2434;48.486;7.964;2023-08-01T08:42:34;18.30;90.80
4840;DHT22;2434;48.486;7.964;2023-08-01T08:45:04;18.30;90.20
4840;DHT22;2434;48.486;7.964;2023-08-01T08:47:38;18.30;90.90
4840;DHT22;2434;48.486;7.964;2023-08-01T08:50:10;18.40;90.90
4840;DHT22;2434;48.486;7.964;2023-08-01T08:52:40;18.40;90.30
4840;DHT22;2434;48.486;7.964;2023-08-01T08:55:08;18.40;90.40
4840;DHT22;2434;48.486;7.964;2023-08-01T08:57:38;18.40;90.70
4840;DHT22;2434;48.486;7.964;2023-08-01T09:00:07;18.40;89.80
4840;DHT22;2434;48.486;7.964;2023-08-01T09:02:37;18.50;89.80
4840;DHT22;2434;48.486;7.964;2023-08-01T09:05:06;18.40;89.90
4840;DHT22;2434;48.486;7.964;2023-08-01T09:07:39;18.40;89.60
4840;DHT22;2434;48.486;7.964;2023-08-01T09:10:09;18.50;90.00
4840;DHT22;2434;48.486;7.964;2023-08-01T09:12:37;18.50;90.70
4840;DHT22;2434;48.486;7.964;2023-08-01T09:15:07;18.50;90.50
4840;DHT22;2434;48.486;7.964;2023-08-01T09:17:35;18.50;90.70
4840;DHT22;2434;48.486;7.964;2023-08-01T09:20:06;18.50;91.10
4840;DHT22;2434;48.486;7.964;2023-08-01T09:22:42;18.50;91.40
4840;DHT22;2434;48.486;7.964;2023-08-01T09:25:11;18.50;91.40
4840;DHT22;2434;48.486;7.964;2023-08-01T09:27:40;18.50;91.90
4840;DHT22;2434;48.486;7.964;2023-08-01T09:30:10;18.50;92.40
4840;DHT22;2434;48.486;7.964;2023-08-01T09:32:40;18.50;92.10
4840;DHT22;2434;48.486;7.964;2023-08-01T09:35:10;18.60;92.20
4840;DHT22;2434;48.486;7.964;2023-08-01T09:37:40;18.50;92.20
4840;DHT22;2434;48.486;7.964;2023-08-01T09:40:09;18.60;92.80
4840;DHT22;2434;48.486;7.964;2023-08-01T09:42:38;18.60;92.20
4840;DHT22;2434;48.486;7.964;2023-08-01T09:45:12;18.60;92.10
4840;DHT22;2434;48.486;7.964;2023-08-01T09:47:41;18.60;92.50
4840;DHT22;2434;48.486;7.964;2023-08-01T09:50:22;18.60;92.80
4840;DHT22;2434;48.486;7.964;2023-08-01T09:52:50;18.80;94.30
4840;DHT22;2434;48.486;7.964;2023-08-01T09:55:26;18.70;94.00
4840;DHT22;2434;48.486;7.964;2023-08-01T09:57:57;18.80;93.10
4840;DHT22;2434;48.486;7.964;2023-08-01T10:00:26;18.80;93.40
4840;DHT22;2434;48.486;7.964;2023-08-01T10:02:55;18.80;92.00
4840;DHT22;2434;48.486;7.964;2023-08-01T10:05:31;18.80;92.00
4840;DHT22;2434;48.486;7.964;2023-08-01T10:08:02;18.80;92.30
4840;DHT22;2434;48.486;7.964;2023-08-01T10:10:30;18.90;92.00
4840;DHT22;2434;48.486;7.964;2023-08-01T10:13:01;18.90;88.90
4840;DHT22;2434;48.486;7.964;2023-08-01T10:15:29;18.90;86.20
4840;DHT22;2434;48.486;7.964;2023-08-01T10:17:58;19.00;84.90
4840;DHT22;2434;48.486;7.964;2023-08-01T10:20:29;18.90;83.30
4840;DHT22;2434;48.486;7.964;2023-08-01T10:22:58;19.00;82.10
4840;DHT22;2434;48.486;7.964;2023-08-01T10:25:29;19.00;76.70
4840;DHT22;2434;48.486;7.964;2023-08-01T10:30:28;19.00;71.20
4840;DHT22;2434;48.486;7.964;2023-08-01T10:32:58;19.00;68.10
4840;DHT22;2434;48.486;7.964;2023-08-01T10:35:35;19.10;69.40
4840;DHT22;2434;48.486;7.964;2023-08-01T10:38:05;19.20;69.40
4840;DHT22;2434;48.486;7.964;2023-08-01T10:40:35;19.20;70.20
4840;DHT22;2434;48.486;7.964;2023-08-01T10:43:04;19.30;66.60
4840;DHT22;2434;48.486;7.964;2023-08-01T10:45:33;19.30;69.30
4840;DHT22;2434;48.486;7.964;2023-08-01T10:48:08;19.30;68.20
4840;DHT22;2434;48.486;7.964;2023-08-01T10:50:40;19.40;67.10
4840;DHT22;2434;48.486;7.964;2023-08-01T10:53:09;19.50;63.70
4840;DHT22;2434;48.486;7.964;2023-08-01T10:55:40;19.50;62.10
4840;DHT22;2434;48.486;7.964;2023-08-01T10:58:08;19.60;63.30
4840;DHT22;2434;48.486;7.964;2023-08-01T11:00:36;19.70;68.10
4840;DHT22;2434;48.486;7.964;2023-08-01T11:03:04;19.80;65.70
4840;DHT22;2434;48.486;7.964;2023-08-01T11:05:32;19.80;65.70
4840;DHT22;2434;48.486;7.964;2023-08-01T11:08:03;19.90;65.20
4840;DHT22;2434;48.486;7.964;2023-08-01T11:10:33;19.90;67.00
4840;DHT22;2434;48.486;7.964;2023-08-01T11:13:01;20.10;67.40
4840;DHT22;2434;48.486;7.964;2023-08-01T11:15:30;20.20;65.20
4840;DHT22;2434;48.486;7.964;2023-08-01T11:17:58;20.20;65.10
4840;DHT22;2434;48.486;7.964;2023-08-01T11:20:26;20.30;65.30
4840;DHT22;2434;48.486;7.964;2023-08-01T11:22:57;20.40;64.60
4840;DHT22;2434;48.486;7.964;2023-08-01T11:25:37;20.50;64.70
4840;DHT22;2434;48.486;7.964;2023-08-01T11:28:07;20.60;62.50
4840;DHT22;2434;48.486;7.964;2023-08-01T11:30:36;20.60;63.40
4840;DHT22;2434;48.486;7.964;2023-08-01T11:33:13;20.60;58.30
4840;DHT22;2434;48.486;7.964;2023-08-01T11:35:42;20.70;58.80
4840;DHT22;2434;48.486;7.964;2023-08-01T11:38:10;20.60;57.70
4840;DHT22;2434;48.486;7.964;2023-08-01T11:40:40;20.60;57.40
4840;DHT22;2434;48.486;7.964;2023-08-01T11:43:09;20.70;60.50
4840;DHT22;2434;48.486;7.964;2023-08-01T11:45:37;20.70;57.80
4840;DHT22;2434;48.486;7.964;2023-08-01T11:48:15;20.80;59.60
4840;DHT22;2434;48.486;7.964;2023-08-01T11:50:44;20.90;56.40
4840;DHT22;2434;48.486;7.964;2023-08-01T11:53:19;21.00;56.90
4840;DHT22;2434;48.486;7.964;2023-08-01T11:55:49;21.10;57.90
4840;DHT22;2434;48.486;7.964;2023-08-01T11:58:28;21.20;56.70
4840;DHT22;2434;48.486;7.964;2023-08-01T12:01:04;21.30;57.80
4840;DHT22;2434;48.486;7.964;2023-08-01T12:03:42;21.30;55.40
4840;DHT22;2434;48.486;7.964;2023-08-01T12:06:10;21.30;56.00
4840;DHT22;2434;48.486;7.964;2023-08-01T12:08:41;21.30;56.90
4840;DHT22;2434;48.486;7.964;2023-08-01T12:11:22;21.20;55.50
4840;DHT22;2434;48.486;7.964;2023-08-01T12:14:01;21.30;57.70
4840;DHT22;2434;48.486;7.964;2023-08-01T12:16:30;21.30;54.50
4840;DHT22;2434;48.486;7.964;2023-08-01T12:18:59;21.40;54.50
4840;DHT22;2434;48.486;7.964;2023-08-01T12:21:27;21.40;53.90
4840;DHT22;2434;48.486;7.964;2023-08-01T12:23:56;21.40;55.00
4840;DHT22;2434;48.486;7.964;2023-08-01T12:26:25;21.40;52.30
4840;DHT22;2434;48.486;7.964;2023-08-01T12:28:54;21.50;52.90
4840;DHT22;2434;48.486;7.964;2023-08-01T12:31:23;21.50;53.00
4840;DHT22;2434;48.486;7.964;2023-08-01T12:33:51;21.50;54.50
4840;DHT22;2434;48.486;7.964;2023-08-01T12:36:20;21.80;56.80
4840;DHT22;2434;48.486;7.964;2023-08-01T12:38:49;21.70;51.70
4840;DHT22;2434;48.486;7.964;2023-08-01T12:41:18;21.70;49.20
4840;DHT22;2434;48.486;7.964;2023-08-01T12:43:47;21.70;51.10
4840;DHT22;2434;48.486;7.964;2023-08-01T12:46:15;21.70;50.60
4840;DHT22;2434;48.486;7.964;2023-08-01T12:48:44;21.80;51.10
4840;DHT22;2434;48.486;7.964;2023-08-01T12:51:12;21.80;50.30
4840;DHT22;2434;48.486;7.964;2023-08-01T12:53:41;21.80;50.80
4840;DHT22;2434;48.486;7.964;2023-08-01T12:56:12;21.80;51.00
4840;DHT22;2434;48.486;7.964;2023-08-01T12:58:41;21.80;50.40
4840;DHT22;2434;48.486;7.964;2023-08-01T13:01:10;21.90;51.70
4840;DHT22;2434;48.486;7.964;2023-08-01T13:03:38;22.00;51.60
4840;DHT22;2434;48.486;7.964;2023-08-01T13:06:09;22.00;50.40
4840;DHT22;2434;48.486;7.964;2023-08-01T13:08:38;22.10;52.60
4840;DHT22;2434;48.486;7.964;2023-08-01T13:11:10;22.20;51.40
4840;DHT22;2434;48.486;7.964;2023-08-01T13:13:40;22.30;53.60
4840;DHT22;2434;48.486;7.964;2023-08-01T13:16:09;22.40;49.20
4840;DHT22;2434;48.486;7.964;2023-08-01T13:18:38;22.50;48.10
4840;DHT22;2434;48.486;7.964;2023-08-01T13:21:13;22.50;46.30
4840;DHT22;2434;48.486;7.964;2023-08-01T13:23:41;22.50;47.50
4840;DHT22;2434;48.486;7.964;2023-08-01T13:26:09;22.60;47.60
4840;DHT22;2434;48.486;7.964;2023-08-01T13:28:37;22.70;47.30
4840;DHT22;2434;48.486;7.964;2023-08-01T13:31:06;22.60;44.10
4840;DHT22;2434;48.486;7.964;2023-08-01T13:33:35;22.60;46.20
4840;DHT22;2434;48.486;7.964;2023-08-01T13:36:04;22.70;47.00
4840;DHT22;2434;48.486;7.964;2023-08-01T13:38:33;22.70;45.20
4840;DHT22;2434;48.486;7.964;2023-08-01T13:41:01;22.70;45.30
4840;DHT22;2434;48.486;7.964;2023-08-01T13:43:32;22.80;45.50
4840;DHT22;2434;48.486;7.964;2023-08-01T13:46:00;22.80;48.40
4840;DHT22;2434;48.486;7.964;2023-08-01T13:48:34;22.80;48.20
4840;DHT22;2434;48.486;7.964;2023-08-01T13:51:03;22.90;46.00
4840;DHT22;2434;48.486;7.964;2023-08-01T13:53:31;23.00;46.30
4840;DHT22;2434;48.486;7.964;2023-08-01T13:55:59;23.00;43.90
4840;DHT22;2434;48.486;7.964;2023-08-01T13:58:27;23.10;45.10
4840;DHT22;2434;48.486;7.964;2023-08-01T14:01:01;23.20;44.70
4840;DHT22;2434;48.486;7.964;2023-08-01T14:03:30;23.20;47.10
4840;DHT22;2434;48.486;7.964;2023-08-01T14:06:05;23.20;46.70
4840;DHT22;2434;48.486;7.964;2023-08-01T14:08:33;23.30;45.40
4840;DHT22;2434;48.486;7.964;2023-08-01T14:11:02;23.30;43.20
4840;DHT22;2434;48.486;7.964;2023-08-01T14:13:30;23.20;40.50
4840;DHT22;2434;48.486;7.964;2023-08-01T14:15:59;23.10;40.00
4840;DHT22;2434;48.486;7.964;2023-08-01T14:18:28;23.10;41.80
4840;DHT22;2434;48.486;7.964;2023-08-01T14:20:57;23.00;41.20
4840;DHT22;2434;48.486;7.964;2023-08-01T14:23:27;23.00;42.90
4840;DHT22;2434;48.486;7.964;2023-08-01T14:25:57;23.00;43.60
4840;DHT22;2434;48.486;7.964;2023-08-01T14:28:26;22.90;43.30
4840;DHT22;2434;48.486;7.964;2023-08-01T14:30:55;22.90;43.30
4840;DHT22;2434;48.486;7.964;2023-08-01T14:33:23;22.90;42.50
4840;DHT22;2434;48.486;7.964;2023-08-01T14:35:51;22.80;40.20
4840;DHT22;2434;48.486;7.964;2023-08-01T14:38:19;22.80;41.30
4840;DHT22;2434;48.486;7.964;2023-08-01T14:40:49;22.80;43.70
4840;DHT22;2434;48.486;7.964;2023-08-01T14:43:37;22.80;41.70
4840;DHT22;2434;48.486;7.964;2023-08-01T14:46:05;22.90;43.10
4840;DHT22;2434;48.486;7.964;2023-08-01T14:48:34;22.90;41.70
4840;DHT22;2434;48.486;7.964;2023-08-01T14:51:05;22.90;42.20
4840;DHT22;2434;48.486;7.964;2023-08-01T14:53:33;22.90;43.30
4840;DHT22;2434;48.486;7.964;2023-08-01T14:56:03;22.90;43.70
4840;DHT22;2434;48.486;7.964;2023-08-01T14:58:33;23.00;43.80
4840;DHT22;2434;48.486;7.964;2023-08-01T15:01:11;23.00;41.00
4840;DHT22;2434;48.486;7.964;2023-08-01T15:03:40;23.10;41.80
4840;DHT22;2434;48.486;7.964;2023-08-01T15:06:08;23.20;42.50
4840;DHT22;2434;48.486;7.964;2023-08-01T15:08:38;23.20;41.10
4840;DHT22;2434;48.486;7.964;2023-08-01T15:11:08;23.20;40.60
4840;DHT22;2434;48.486;7.964;2023-08-01T15:13:36;23.20;39.70
4840;DHT22;2434;48.486;7.964;2023-08-01T15:16:08;23.10;40.20
4840;DHT22;2434;48.486;7.964;2023-08-01T15:18:37;23.00;39.20
4840;DHT22;2434;48.486;7.964;2023-08-01T15:21:05;23.00;39.00
4840;DHT22;2434;48.486;7.964;2023-08-01T15:23:33;22.90;38.90
4840;DHT22;2434;48.486;7.964;2023-08-01T15:26:01;23.00;41.20
4840;DHT22;2434;48.486;7.964;2023-08-01T15:28:31;23.00;40.20
4840;DHT22;2434;48.486;7.964;2023-08-01T15:31:03;23.00;39.10
4840;DHT22;2434;48.486;7.964;2023-08-01T15:33:33;23.00;38.50
4840;DHT22;2434;48.486;7.964;2023-08-01T15:36:03;23.00;37.10
4840;DHT22;2434;48.486;7.964;2023-08-01T15:38:33;23.00;37.10
4840;DHT22;2434;48.486;7.964;2023-08-01T15:41:02;23.00;37.50
4840;DHT22;2434;48.486;7.964;2023-08-01T15:43:38;23.00;37.20
4840;DHT22;2434;48.486;7.964;2023-08-01T15:46:07;22.90;36.20
4840;DHT22;2434;48.486;7.964;2023-08-01T15:48:36;22.90;35.90
4840;DHT22;2434;48.486;7.964;2023-08-01T15:51:05;22.80;36.10
4840;DHT22;2434;48.486;7.964;2023-08-01T15:53:34;22.70;35.60
4840;DHT22;2434;48.486;7.964;2023-08-01T15:56:03;22.60;36.10
4840;DHT22;2434;48.486;7.964;2023-08-01T15:58:31;22.50;36.70
4840;DHT22;2434;48.486;7.964;2023-08-01T16:01:01;22.50;37.20
4840;DHT22;2434;48.486;7.964;2023-08-01T16:03:30;22.50;36.60
4840;DHT22;2434;48.486;7.964;2023-08-01T16:05:58;22.50;37.00
4840;DHT22;2434;48.486;7.964;2023-08-01T16:08:26;22.60;37.70
4840;DHT22;2434;48.486;7.964;2023-08-01T16:10:56;22.60;38.40
4840;DHT22;2434;48.486;7.964;2023-08-01T16:13:24;22.60;37.40
4840;DHT22;2434;48.486;7.964;2023-08-01T16:15:52;22.60;37.40
4840;DHT22;2434;48.486;7.964;2023-08-01T16:18:22;22.60;36.90